| time (UTC) | temp C | wind direction | speed KPH | gust KPH | rain 1hr cm | rain 24hr cm | rain mn cm | humidity % | barometer mb |
| 20260505153044 | 18 | 123 | 0.0 | 4.8 | 0.00 | 0.79 | 0.79 | 94 | 1006.4 |
| 20260505151547 | 17 | 0 | 0.0 | 8.0 | 0.00 | 0.79 | 0.79 | 96 | 1006.6 |
| 20260505130104 | 16 | 0 | 0.0 | 0.0 | 0.00 | 0.79 | 0.79 | 99 | 1006.8 |
| 20260505124541 | 16 | 0 | 0.0 | 0.0 | 0.00 | 0.79 | 0.79 | 99 | 1006.7 |
| 20260505123043 | 16 | 0 | 0.0 | 3.2 | 0.00 | 0.79 | 0.79 | 99 | 1006.4 |
| 20260505121544 | 15 | 0 | 0.0 | 8.0 | 0.00 | 0.79 | 0.79 | 98 | 1006.2 |
| 20260505120039 | 15 | 39 | 1.6 | 9.7 | 0.03 | 0.79 | 0.79 | 98 | 1006.2 |
| 20260505114538 | 15 | 0 | 0.0 | 9.7 | 0.03 | 0.79 | 0.79 | 98 | 1006.0 |
| 20260505113044 | 15 | 0 | 0.0 | 0.0 | 0.03 | 0.79 | 0.79 | 98 | 1005.3 |
| 20260505111540 | 16 | 0 | 0.0 | 0.0 | 0.08 | 0.79 | 0.79 | 98 | 1005.5 |
| 20260505101547 | 16 | 0 | 0.0 | 1.6 | 0.05 | 0.71 | 0.71 | 98 | 1006.1 |
| 20260505100043 | 16 | 0 | 0.0 | 0.0 | 0.08 | 0.71 | 0.71 | 98 | 1005.5 |
| 20260505094542 | 16 | 0 | 0.0 | 0.0 | 0.18 | 0.71 | 0.71 | 98 | 1005.9 |
| 20260505093042 | 16 | 0 | 0.0 | 0.0 | 0.25 | 0.69 | 0.69 | 97 | 1006.3 |
| 20260505091541 | 16 | 0 | 0.0 | 12.9 | 0.30 | 0.66 | 0.66 | 97 | 1005.8 |
| 20260505090041 | 16 | 219 | 0.0 | 4.8 | 0.38 | 0.64 | 0.64 | 97 | 1007.1 |
| 20260505084545 | 16 | 0 | 0.0 | 1.6 | 0.33 | 0.51 | 0.51 | 96 | 1006.9 |
| 20260505083042 | 16 | 0 | 0.0 | 3.2 | 0.33 | 0.43 | 0.43 | 96 | 1006.8 |
| 20260505081549 | 16 | 0 | 0.0 | 11.3 | 0.33 | 0.36 | 0.36 | 95 | 1006.8 |
| 20260505080044 | 16 | 0 | 0.0 | 11.3 | 0.23 | 0.23 | 0.23 | 93 | 1007.0 |
| 20260505074540 | 16 | 0 | 0.0 | 6.4 | 0.18 | 0.18 | 0.18 | 92 | 1007.0 |
| 20260505073049 | 17 | 0 | 1.6 | 8.0 | 0.10 | 0.10 | 0.10 | 91 | 1006.7 |
| 20260505071551 | 17 | 0 | 0.0 | 0.0 | 0.03 | 0.03 | 0.03 | 89 | 1006.6 |
| 20260505070043 | 18 | 0 | 0.0 | 0.0 | 0.00 | 0.00 | 0.00 | 85 | 1006.4 |
| 20260505064541 | 18 | 0 | 0.0 | 0.0 | 0.00 | 0.00 | 0.00 | 82 | 1006.3 |
| 20260505063038 | 18 | 0 | 0.0 | 0.0 | 0.00 | 0.00 | 0.00 | 80 | 1006.5 |
| 20260505061539 | 18 | 0 | 0.0 | 0.0 | 0.00 | 0.00 | 0.00 | 80 | 1006.7 |
| 20260505060039 | 18 | 0 | 0.0 | 0.0 | 0.00 | 0.00 | 0.00 | 79 | 1007.0 |
| 20260505054553 | 18 | 0 | 0.0 | 0.0 | 0.00 | 0.00 | 0.00 | 79 | 1007.0 |
| 20260505053054 | 18 | 0 | 0.0 | 0.0 | 0.00 | 0.00 | 0.00 | 80 | 1006.6 |
| 20260505051549 | 18 | 0 | 0.0 | 0.0 | 0.00 | 0.00 | 0.00 | 79 | 1006.8 |
| 20260505041543 | 19 | 0 | 0.0 | 0.0 | 0.00 | 0.00 | 0.00 | 76 | 1007.3 |
| 20260505040052 | 19 | 0 | 0.0 | 0.0 | 0.00 | 0.00 | 0.00 | 75 | 1007.5 |
| 20260505034540 | 20 | 0 | 0.0 | 0.0 | 0.00 | 0.00 | 0.00 | 75 | 1007.6 |
| 20260505033041 | 19 | 0 | 0.0 | 0.0 | 0.00 | 0.00 | 0.00 | 75 | 1007.5 |
| 20260505031536 | 19 | 0 | 0.0 | 0.0 | 0.00 | 0.00 | 0.00 | 76 | 1007.7 |
| 20260505030048 | 20 | 0 | 0.0 | 1.6 | 0.00 | 0.00 | 0.00 | 75 | 1007.5 |
| 20260505024547 | 20 | 0 | 0.0 | 0.0 | 0.00 | 0.00 | 0.00 | 72 | 1007.6 |
| 20260505023039 | 20 | 0 | 0.0 | 0.0 | 0.00 | 0.00 | 0.00 | 71 | 1007.7 |
| 20260505021545 | 21 | 0 | 0.0 | 4.8 | 0.00 | 0.00 | 0.00 | 69 | 1007.5 |
| 20260505020043 | 21 | 0 | 0.0 | 1.6 | 0.00 | 0.00 | 0.00 | 68 | 1007.1 |
| 20260505014544 | 21 | 0 | 0.0 | 8.0 | 0.00 | 0.00 | 0.00 | 68 | 1007.0 |
| 20260505013040 | 21 | 0 | 0.0 | 1.6 | 0.00 | 0.00 | 0.00 | 70 | 1006.8 |
| 20260505011552 | 22 | 0 | 0.0 | 1.6 | 0.00 | 0.00 | 0.00 | 69 | 1006.6 |
| 20260505010047 | 22 | 0 | 0.0 | 4.8 | 0.00 | 0.00 | 0.00 | 66 | 1006.3 |
| 20260505004541 | 23 | 0 | 0.0 | 3.2 | 0.00 | 0.00 | 0.00 | 65 | 1006.2 |
| 20260505003050 | 23 | 0 | 0.0 | 1.6 | 0.00 | 0.00 | 0.00 | 64 | 1006.0 |
| 20260505001543 | 24 | 0 | 0.0 | 4.8 | 0.00 | 0.00 | 0.00 | 61 | 1005.9 |
| 20260505000044 | 25 | 135 | 0.0 | 3.2 | 0.00 | 0.00 | 0.00 | 60 | 1005.9 |
| 20260504234539 | 25 | 0 | 0.0 | 3.2 | 0.00 | 0.00 | 0.00 | 59 | 1005.8 |
| 20260504233042 | 26 | 0 | 0.0 | 4.8 | 0.00 | 0.00 | 0.00 | 57 | 1005.9 |
| 20260504231541 | 26 | 0 | 0.0 | 6.4 | 0.00 | 0.00 | 0.00 | 54 | 1006.0 |
| 20260504230044 | 26 | 143 | 0.0 | 12.9 | 0.00 | 0.00 | 0.00 | 55 | 1006.1 |
| 20260504224541 | 27 | 0 | 1.6 | 14.5 | 0.00 | 0.00 | 0.00 | 53 | 1006.1 |
| 20260504223040 | 27 | 0 | 6.4 | 20.9 | 0.00 | 0.00 | 0.00 | 53 | 1006.1 |
| 20260504221541 | 27 | 251 | 1.6 | 24.1 | 0.00 | 0.00 | 0.00 | 52 | 1006.2 |
| 20260504220048 | 27 | 270 | 9.7 | 27.4 | 0.00 | 0.00 | 0.00 | 48 | 1006.2 |
| 20260504214552 | 27 | 311 | 6.4 | 20.9 | 0.00 | 0.00 | 0.00 | 49 | 1006.4 |
| 20260504213048 | 27 | 264 | 9.7 | 25.7 | 0.00 | 0.00 | 0.00 | 50 | 1006.5 |
| 20260504211542 | 27 | 195 | 11.3 | 33.8 | 0.00 | 0.00 | 0.00 | 50 | 1006.5 |
| 20260504210041 | 27 | 287 | 11.3 | 20.9 | 0.00 | 0.00 | 0.00 | 49 | 1006.7 |
| 20260504204549 | 27 | 257 | 4.8 | 20.9 | 0.00 | 0.00 | 0.00 | 53 | 1006.9 |
| 20260504203045 | 27 | 190 | 8.0 | 24.1 | 0.00 | 0.00 | 0.00 | 51 | 1007.1 |
| 20260504201543 | 27 | 219 | 6.4 | 22.5 | 0.00 | 0.00 | 0.00 | 51 | 1007.2 |
| 20260504200049 | 27 | 130 | 3.2 | 24.1 | 0.00 | 0.00 | 0.00 | 54 | 1007.3 |
| 20260504194542 | 27 | 205 | 11.3 | 22.5 | 0.00 | 0.00 | 0.00 | 51 | 1007.4 |
| 20260504193040 | 26 | 291 | 8.0 | 33.8 | 0.00 | 0.00 | 0.00 | 53 | 1007.5 |
| 20260504191551 | 26 | 237 | 8.0 | 29.0 | 0.00 | 0.00 | 0.00 | 53 | 1007.7 |
| 20260504190059 | 26 | 266 | 9.7 | 29.0 | 0.00 | 0.00 | 0.00 | 53 | 1007.7 |
| 20260504184554 | 26 | 250 | 8.0 | 24.1 | 0.00 | 0.00 | 0.00 | 54 | 1007.8 |
| 20260504183048 | 26 | 262 | 8.0 | 22.5 | 0.00 | 0.00 | 0.00 | 55 | 1008.1 |
| 20260504181546 | 26 | 137 | 3.2 | 20.9 | 0.00 | 0.00 | 0.00 | 57 | 1008.2 |
| 20260504180039 | 26 | 0 | 1.6 | 20.9 | 0.00 | 0.00 | 0.00 | 56 | 1008.2 |
| 20260504174547 | 25 | 148 | 6.4 | 19.3 | 0.00 | 0.00 | 0.00 | 54 | 1008.4 |
| 20260504173042 | 25 | 0 | 1.6 | 16.1 | 0.00 | 0.00 | 0.00 | 54 | 1008.5 |
| 20260504171542 | 25 | 240 | 4.8 | 19.3 | 0.00 | 0.00 | 0.00 | 55 | 1008.6 |